createdAt,value
2022-08-19T00:01:59.007Z,19.42
2022-08-19T00:04:36.440Z,19.47
2022-08-19T00:07:08.875Z,19.48
2022-08-19T00:09:42.007Z,19.43
2022-08-19T00:12:14.522Z,19.33
2022-08-19T00:14:47.009Z,19.27
2022-08-19T00:17:19.412Z,19.29
2022-08-19T00:19:51.881Z,19.20
2022-08-19T00:22:24.487Z,19.15
2022-08-19T00:24:57.575Z,19.18
2022-08-19T00:27:30.006Z,19.08
2022-08-19T00:30:03.816Z,19.08
2022-08-19T00:32:36.647Z,19.03
2022-08-19T00:35:10.363Z,19.09
2022-08-19T00:37:43.565Z,19.08
2022-08-19T00:40:18.549Z,18.96
2022-08-19T00:42:54.161Z,18.99
2022-08-19T00:45:32.578Z,18.95
2022-08-19T00:48:14.672Z,18.94
2022-08-19T00:50:52.077Z,18.94
2022-08-19T00:53:28.256Z,18.89
2022-08-19T00:56:03.490Z,18.85
2022-08-19T00:58:36.671Z,18.85
2022-08-19T01:01:09.235Z,18.82
2022-08-19T01:03:58.108Z,18.82
2022-08-19T01:06:32.837Z,18.78
2022-08-19T01:09:06.078Z,18.71
2022-08-19T01:11:43.815Z,18.68
2022-08-19T01:14:17.144Z,18.51
2022-08-19T01:16:54.806Z,18.62
2022-08-19T01:19:32.231Z,18.61
2022-08-19T01:22:28.784Z,18.61
2022-08-19T01:25:04.436Z,18.64
2022-08-19T01:27:48.530Z,18.63
2022-08-19T01:30:24.150Z,18.67
2022-08-19T01:32:57.488Z,18.60
2022-08-19T01:35:32.527Z,18.50
2022-08-19T01:38:07.979Z,18.56
2022-08-19T01:40:42.399Z,18.55
2022-08-19T01:43:15.437Z,18.54
2022-08-19T01:45:47.891Z,18.55
2022-08-19T01:48:20.420Z,18.44
2022-08-19T01:50:52.846Z,18.36
2022-08-19T01:53:26.651Z,18.40
2022-08-19T01:56:05.561Z,18.33
2022-08-19T01:58:42.222Z,18.27
2022-08-19T02:01:14.643Z,18.27
2022-08-19T02:03:47.238Z,18.31
2022-08-19T02:06:20.548Z,18.29
2022-08-19T02:08:59.702Z,18.24
2022-08-19T02:11:34.642Z,18.19
2022-08-19T02:14:08.627Z,18.25
2022-08-19T02:16:41.119Z,18.21
2022-08-19T02:19:13.854Z,18.14
2022-08-19T02:21:46.850Z,18.12
2022-08-19T02:24:19.320Z,18.06
2022-08-19T02:26:52.433Z,17.88
2022-08-19T02:29:25.091Z,17.94
2022-08-19T02:31:57.500Z,17.93
2022-08-19T02:34:29.939Z,17.99
2022-08-19T02:37:03.924Z,17.96
2022-08-19T02:39:36.213Z,17.96
2022-08-19T02:42:09.313Z,17.99
2022-08-19T02:44:41.755Z,17.90
2022-08-19T02:47:14.683Z,17.89
2022-08-19T02:49:50.199Z,17.85
2022-08-19T02:52:23.627Z,17.84
2022-08-19T02:54:57.830Z,17.79
2022-08-19T02:57:32.303Z,17.75
2022-08-19T03:00:06.732Z,17.79
2022-08-19T03:02:39.171Z,17.72
2022-08-19T03:05:11.673Z,17.74
2022-08-19T03:07:44.095Z,17.69
2022-08-19T03:10:16.588Z,17.69
2022-08-19T03:12:49.634Z,17.62
2022-08-19T03:15:22.191Z,17.59
2022-08-19T03:17:54.710Z,17.64
2022-08-19T03:20:27.203Z,17.54
2022-08-19T03:22:59.589Z,17.60
2022-08-19T03:25:36.674Z,17.51
2022-08-19T03:28:11.067Z,17.51
2022-08-19T03:30:56.785Z,17.54
2022-08-19T03:33:30.827Z,17.49
2022-08-19T03:36:07.935Z,17.48
2022-08-19T03:38:43.764Z,17.43
2022-08-19T03:41:18.819Z,17.49
2022-08-19T03:43:53.534Z,17.44
2022-08-19T03:46:29.352Z,17.52
2022-08-19T03:49:07.647Z,17.50
2022-08-19T03:51:40.112Z,17.49
2022-08-19T03:54:14.555Z,17.51
2022-08-19T03:56:49.474Z,17.49
2022-08-19T03:59:26.188Z,17.52
2022-08-19T04:02:01.506Z,17.48
2022-08-19T04:04:33.910Z,17.47
2022-08-19T04:07:07.143Z,17.44
2022-08-19T04:09:39.514Z,17.50
2022-08-19T04:12:11.958Z,17.47
2022-08-19T04:14:44.989Z,17.45
2022-08-19T04:17:17.438Z,17.39
2022-08-19T04:19:49.948Z,17.36
2022-08-19T04:22:22.423Z,17.40
2022-08-19T04:24:54.829Z,17.44
2022-08-19T04:27:27.331Z,17.43
2022-08-19T04:30:00.413Z,17.53
2022-08-19T04:32:32.898Z,17.58
2022-08-19T04:35:17.863Z,17.64
2022-08-19T04:37:51.781Z,17.70
2022-08-19T04:40:42.242Z,17.74
2022-08-19T04:43:15.990Z,17.69
2022-08-19T04:45:49.039Z,17.72
2022-08-19T04:48:27.757Z,17.72
2022-08-19T04:51:00.456Z,17.81
2022-08-19T04:53:37.441Z,17.77
2022-08-19T04:56:12.541Z,17.86
2022-08-19T04:58:46.241Z,17.96
2022-08-19T05:01:21.112Z,18.04
2022-08-19T05:03:53.643Z,18.10
2022-08-19T05:06:26.041Z,18.18
2022-08-19T05:08:58.496Z,18.22
2022-08-19T05:11:34.068Z,18.29
2022-08-19T05:14:06.594Z,18.42
2022-08-19T05:16:40.685Z,18.48
2022-08-19T05:19:31.344Z,18.59
2022-08-19T05:22:24.419Z,18.72
2022-08-19T05:25:12.322Z,18.84
2022-08-19T05:27:46.335Z,18.94
2022-08-19T05:30:18.879Z,19.04
2022-08-19T05:33:09.667Z,19.10
2022-08-19T05:35:42.278Z,19.21
2022-08-19T05:38:14.643Z,19.28
2022-08-19T05:40:49.639Z,19.48
2022-08-19T05:43:22.083Z,19.67
2022-08-19T05:45:54.526Z,19.77
2022-08-19T05:48:28.523Z,19.94
2022-08-19T05:51:06.423Z,20.09
2022-08-19T05:53:38.990Z,20.28
2022-08-19T05:56:16.250Z,20.47
2022-08-19T05:58:49.145Z,20.68
2022-08-19T06:01:21.934Z,20.87
2022-08-19T06:03:55.354Z,21.09
2022-08-19T06:06:27.833Z,21.27
2022-08-19T06:09:00.499Z,21.45
2022-08-19T06:11:35.709Z,21.69
2022-08-19T06:14:16.721Z,21.87
2022-08-19T06:16:51.518Z,22.06
2022-08-19T06:19:25.589Z,22.28
2022-08-19T06:21:59.791Z,22.52
2022-08-19T06:24:32.424Z,22.73
2022-08-19T06:27:06.093Z,22.98
2022-08-19T06:29:39.142Z,23.24
2022-08-19T06:32:11.612Z,23.43
2022-08-19T06:34:44.752Z,23.65
2022-08-19T06:37:17.472Z,23.85
2022-08-19T06:39:50.958Z,24.12
2022-08-19T06:42:23.851Z,24.35
2022-08-19T06:44:56.471Z,24.55
2022-08-19T06:47:29.259Z,24.74
2022-08-19T06:50:03.591Z,24.95
2022-08-19T06:52:38.240Z,25.17
2022-08-19T06:55:10.947Z,25.32
2022-08-19T06:57:46.446Z,25.56
2022-08-19T07:00:19.085Z,25.82
2022-08-19T07:02:54.273Z,26.02
2022-08-19T07:05:30.460Z,26.25
2022-08-19T07:08:05.134Z,26.51
2022-08-19T07:10:37.590Z,26.70
2022-08-19T07:13:15.614Z,26.93
2022-08-19T07:15:49.738Z,27.16
2022-08-19T07:18:23.223Z,27.39
2022-08-19T07:21:04.304Z,27.63
2022-08-19T07:26:16.698Z,28.01
2022-08-19T07:28:52.820Z,28.19
2022-08-19T07:31:27.818Z,28.36
2022-08-19T07:34:07.117Z,28.47
2022-08-19T07:36:42.226Z,28.60
2022-08-19T07:39:17.417Z,28.75
2022-08-19T07:41:50.874Z,28.91
2022-08-19T07:44:24.054Z,29.10
2022-08-19T07:46:59.160Z,29.16
2022-08-19T07:49:31.999Z,29.18
2022-08-19T07:52:08.058Z,29.43
2022-08-19T07:54:41.431Z,29.67
2022-08-19T07:57:14.030Z,29.86
2022-08-19T07:59:46.478Z,30.04
2022-08-19T08:02:18.857Z,30.26
2022-08-19T08:05:09.426Z,30.44
2022-08-19T08:08:00.851Z,30.56
2022-08-19T08:10:33.398Z,30.73
2022-08-19T08:13:09.660Z,30.45
2022-08-19T08:15:44.813Z,30.44
2022-08-19T08:18:17.547Z,30.38
2022-08-19T08:20:50.030Z,30.54
2022-08-19T08:23:25.181Z,30.51
2022-08-19T08:25:59.407Z,30.64
2022-08-19T08:28:32.328Z,30.82
2022-08-19T08:31:09.490Z,30.90
2022-08-19T08:33:42.632Z,31.07
2022-08-19T08:36:15.528Z,31.29
2022-08-19T08:38:48.606Z,31.38
2022-08-19T08:41:28.944Z,31.53
2022-08-19T08:44:04.387Z,31.63
2022-08-19T08:46:41.235Z,31.56
2022-08-19T08:49:24.746Z,31.82
2022-08-19T08:52:02.566Z,32.03
2022-08-19T08:54:40.280Z,31.84
2022-08-19T08:57:16.199Z,31.94
2022-08-19T08:59:52.031Z,32.29
2022-08-19T09:02:26.704Z,32.53
2022-08-19T09:04:59.276Z,32.53
2022-08-19T09:07:47.623Z,32.76
2022-08-19T09:10:29.371Z,33.00
2022-08-19T09:13:11.384Z,32.90
2022-08-19T09:15:46.419Z,32.93
2022-08-19T09:18:20.185Z,32.93
2022-08-19T09:20:53.207Z,33.29
2022-08-19T09:23:26.788Z,33.53
2022-08-19T09:26:00.285Z,33.83
2022-08-19T09:28:32.775Z,33.55
2022-08-19T09:31:05.460Z,33.64
2022-08-19T09:33:38.403Z,33.75
2022-08-19T09:36:14.075Z,34.05
2022-08-19T09:38:56.798Z,34.16
2022-08-19T09:41:31.715Z,34.17
2022-08-19T09:44:06.951Z,34.18
2022-08-19T09:46:39.446Z,34.32
2022-08-19T09:49:11.858Z,34.39
2022-08-19T09:51:51.269Z,34.66
2022-08-19T09:54:24.797Z,34.71
2022-08-19T09:57:00.851Z,34.71
2022-08-19T09:59:36.374Z,34.97
2022-08-19T10:02:10.627Z,35.20
2022-08-19T10:05:01.755Z,35.38
2022-08-19T10:07:36.340Z,35.01
2022-08-19T10:10:09.963Z,35.28
2022-08-19T10:12:48.824Z,35.26
2022-08-19T10:15:28.762Z,35.03
2022-08-19T10:18:02.234Z,34.93
2022-08-19T10:20:35.810Z,35.17
2022-08-19T10:23:08.319Z,35.16
2022-08-19T10:25:40.795Z,34.88
2022-08-19T10:28:19.308Z,34.87
2022-08-19T10:30:52.698Z,35.07
2022-08-19T10:33:38.758Z,35.18
2022-08-19T10:36:20.631Z,35.16
2022-08-19T10:38:57.183Z,34.75
2022-08-19T10:41:33.851Z,34.85
2022-08-19T10:44:09.775Z,35.14
2022-08-19T10:46:48.840Z,35.39
2022-08-19T10:49:21.546Z,35.31
2022-08-19T10:52:18.612Z,35.22
2022-08-19T10:55:11.323Z,35.45
2022-08-19T10:58:01.866Z,35.67
2022-08-19T11:00:35.839Z,35.58
2022-08-19T11:03:10.530Z,35.40
2022-08-19T11:05:42.964Z,35.64
2022-08-19T11:08:22.115Z,35.83
2022-08-19T11:11:00.912Z,35.71
2022-08-19T11:13:37.051Z,35.45
2022-08-19T11:16:13.568Z,35.49
2022-08-19T11:18:48.522Z,35.76
2022-08-19T11:21:23.264Z,35.60
2022-08-19T11:23:58.147Z,36.11
2022-08-19T11:26:31.687Z,35.73
2022-08-19T11:29:06.424Z,36.10
2022-08-19T11:31:41.746Z,35.85
2022-08-19T11:34:18.033Z,36.04
2022-08-19T11:36:51.667Z,36.37
2022-08-19T11:39:25.223Z,36.52
2022-08-19T11:41:59.543Z,36.83
2022-08-19T11:44:32.017Z,36.50
2022-08-19T11:47:09.046Z,36.80
2022-08-19T11:49:42.597Z,36.79
2022-08-19T11:52:15.335Z,36.46
2022-08-19T11:54:47.854Z,36.38
2022-08-19T11:57:20.282Z,36.39
2022-08-19T11:59:53.295Z,36.40
2022-08-19T12:02:26.470Z,36.31
2022-08-19T12:04:59.171Z,36.55
2022-08-19T12:07:33.377Z,36.34
2022-08-19T12:10:06.491Z,36.23
2022-08-19T12:12:42.748Z,36.58
2022-08-19T12:15:15.555Z,36.81
2022-08-19T12:17:48.685Z,37.05
2022-08-19T12:20:21.386Z,36.73
2022-08-19T12:22:53.787Z,36.53
2022-08-19T12:25:26.218Z,36.70
2022-08-19T12:27:59.222Z,36.96
2022-08-19T12:30:32.008Z,37.10
2022-08-19T12:33:05.282Z,36.83
2022-08-19T12:35:45.181Z,36.94
2022-08-19T12:38:18.632Z,36.92
2022-08-19T12:40:52.845Z,36.90
2022-08-19T12:43:27.068Z,36.84
2022-08-19T12:45:59.955Z,36.97
2022-08-19T12:48:35.051Z,36.80
2022-08-19T12:51:10.379Z,36.73
2022-08-19T12:53:43.582Z,36.47
2022-08-19T12:56:17.518Z,36.34
2022-08-19T12:58:52.944Z,35.60
2022-08-19T13:01:25.719Z,35.48
2022-08-19T13:03:59.003Z,35.55
2022-08-19T13:06:31.442Z,35.68
2022-08-19T13:09:04.083Z,35.77
2022-08-19T13:11:37.443Z,35.71
2022-08-19T13:14:11.494Z,35.77
2022-08-19T13:16:44.017Z,35.73
2022-08-19T13:19:21.193Z,35.38
2022-08-19T13:21:57.740Z,35.26
2022-08-19T13:24:33.927Z,35.06
2022-08-19T13:27:07.221Z,35.04
2022-08-19T13:29:58.676Z,35.05
2022-08-19T13:32:49.717Z,34.89
2022-08-19T13:35:22.965Z,34.62
2022-08-19T13:37:55.592Z,34.62
2022-08-19T13:40:30.564Z,34.64
2022-08-19T13:43:17.699Z,34.71
2022-08-19T13:45:56.142Z,34.64
2022-08-19T13:48:28.695Z,34.45
2022-08-19T13:51:01.800Z,34.50
2022-08-19T13:53:34.238Z,34.45
2022-08-19T13:56:07.579Z,34.43
2022-08-19T13:58:40.645Z,34.44
2022-08-19T14:01:13.085Z,34.27
2022-08-19T14:03:46.180Z,34.27
2022-08-19T14:06:21.635Z,34.33
2022-08-19T14:08:54.043Z,34.33
2022-08-19T14:11:26.503Z,34.22
2022-08-19T14:13:59.238Z,34.26
2022-08-19T14:16:31.671Z,34.34
2022-08-19T14:19:04.357Z,34.35
2022-08-19T14:21:41.411Z,34.28
2022-08-19T14:24:14.110Z,34.09
2022-08-19T14:26:46.471Z,34.01
2022-08-19T14:29:19.322Z,33.72
2022-08-19T14:31:51.882Z,33.56
2022-08-19T14:34:24.353Z,33.34
2022-08-19T14:36:57.709Z,33.48
2022-08-19T14:39:30.167Z,33.52
2022-08-19T14:42:11.266Z,33.47
2022-08-19T14:44:44.642Z,33.43
2022-08-19T14:47:17.299Z,33.34
2022-08-19T14:49:49.774Z,33.42
2022-08-19T14:52:23.463Z,33.30
2022-08-19T14:54:55.884Z,33.35
2022-08-19T14:57:28.369Z,33.12
2022-08-19T15:00:00.985Z,33.01
2022-08-19T15:02:35.444Z,32.84
2022-08-19T15:05:09.059Z,32.69
2022-08-19T15:07:42.146Z,32.78
2022-08-19T15:10:15.762Z,32.86
2022-08-19T15:12:51.602Z,32.60
2022-08-19T15:15:24.475Z,32.75
2022-08-19T15:18:02.419Z,32.80
2022-08-19T15:20:35.079Z,32.81
2022-08-19T15:23:08.161Z,32.69
2022-08-19T15:25:41.710Z,32.70
2022-08-19T15:28:15.656Z,32.78
2022-08-19T15:30:48.542Z,32.82
2022-08-19T15:33:20.955Z,32.87
2022-08-19T15:35:53.466Z,32.80
2022-08-19T15:38:26.679Z,32.78
2022-08-19T15:41:19.378Z,32.81
2022-08-19T15:43:54.806Z,32.81
2022-08-19T15:46:30.301Z,32.77
2022-08-19T15:49:03.389Z,32.70
2022-08-19T15:51:38.498Z,32.55
2022-08-19T15:54:13.436Z,32.45
2022-08-19T15:57:06.253Z,32.32
2022-08-19T15:59:59.975Z,32.14
2022-08-19T16:02:55.382Z,32.18
2022-08-19T16:05:45.893Z,32.10
2022-08-19T16:08:18.471Z,32.06
2022-08-19T16:10:51.506Z,31.89
2022-08-19T16:13:23.954Z,31.80
2022-08-19T16:15:57.262Z,31.79
2022-08-19T16:18:30.122Z,31.74
2022-08-19T16:21:02.503Z,31.67
2022-08-19T16:23:35.435Z,31.63
2022-08-19T16:26:08.854Z,31.60
2022-08-19T16:28:42.219Z,31.51
2022-08-19T16:31:15.436Z,31.41
2022-08-19T16:33:48.122Z,31.33
2022-08-19T16:36:23.456Z,31.28
2022-08-19T16:38:56.003Z,31.26
2022-08-19T16:41:29.084Z,31.12
2022-08-19T16:44:01.671Z,30.77
2022-08-19T16:46:34.081Z,30.79
2022-08-19T16:49:07.131Z,30.70
2022-08-19T16:51:39.609Z,30.69
2022-08-19T16:54:12.600Z,30.70
2022-08-19T16:56:45.743Z,30.66
2022-08-19T16:59:18.207Z,30.61
2022-08-19T17:01:51.655Z,30.54
2022-08-19T17:04:24.621Z,30.44
2022-08-19T17:06:57.005Z,30.30
2022-08-19T17:09:29.390Z,29.99
2022-08-19T17:12:05.899Z,29.94
2022-08-19T17:14:41.617Z,29.88
2022-08-19T17:17:16.339Z,29.70
2022-08-19T17:19:49.205Z,29.58
2022-08-19T17:22:21.607Z,29.47
2022-08-19T17:24:56.051Z,29.42
2022-08-19T17:27:32.110Z,29.31
2022-08-19T17:30:06.318Z,28.99
2022-08-19T17:32:38.778Z,28.76
2022-08-19T17:35:11.490Z,28.69
2022-08-19T17:37:43.846Z,28.61
2022-08-19T17:40:19.728Z,28.44
2022-08-19T17:42:57.122Z,28.25
2022-08-19T17:45:29.630Z,28.22
2022-08-19T17:48:02.158Z,28.18
2022-08-19T17:50:35.483Z,27.96
2022-08-19T17:53:07.930Z,27.78
2022-08-19T17:55:48.005Z,27.68
2022-08-19T17:58:22.001Z,27.63
2022-08-19T18:00:55.606Z,27.58
2022-08-19T18:03:29.723Z,27.67
2022-08-19T18:06:02.206Z,27.67
2022-08-19T18:08:37.740Z,27.65
2022-08-19T18:11:10.717Z,27.58
2022-08-19T18:13:43.779Z,27.59
2022-08-19T18:16:18.085Z,27.55
2022-08-19T18:18:51.952Z,27.52
2022-08-19T18:21:30.200Z,27.50
2022-08-19T18:24:02.946Z,27.47
2022-08-19T18:26:35.379Z,27.41
2022-08-19T18:29:09.062Z,27.40
2022-08-19T18:31:42.910Z,27.39
2022-08-19T18:34:15.394Z,27.29
2022-08-19T18:36:53.910Z,27.26
2022-08-19T18:39:45.268Z,27.23
2022-08-19T18:42:36.768Z,27.13
2022-08-19T18:45:29.250Z,26.91
2022-08-19T18:48:27.259Z,26.92
2022-08-19T18:51:01.839Z,26.84
2022-08-19T18:53:37.098Z,26.75
2022-08-19T18:56:12.508Z,26.70
2022-08-19T18:58:45.732Z,26.66
2022-08-19T19:01:21.651Z,26.80
2022-08-19T19:03:55.441Z,26.90
2022-08-19T19:06:30.449Z,26.92
2022-08-19T19:09:04.147Z,26.99
2022-08-19T19:11:41.695Z,26.96
2022-08-19T19:14:32.849Z,26.91
2022-08-19T19:17:14.193Z,26.76
2022-08-19T19:19:46.668Z,26.88
2022-08-19T19:22:21.690Z,26.92
2022-08-19T19:24:54.708Z,26.91
2022-08-19T19:27:27.070Z,26.91
2022-08-19T19:29:59.453Z,26.83
2022-08-19T19:32:39.102Z,26.73
2022-08-19T19:35:11.876Z,26.67
2022-08-19T19:37:44.635Z,26.64
2022-08-19T19:40:17.303Z,26.57
2022-08-19T19:42:51.219Z,26.46
2022-08-19T19:45:24.223Z,26.38
2022-08-19T19:47:57.870Z,26.25
2022-08-19T19:50:30.590Z,26.18
2022-08-19T19:53:03.264Z,26.05
2022-08-19T19:55:35.930Z,25.98
2022-08-19T19:58:08.654Z,25.77
2022-08-19T20:00:41.194Z,25.72
2022-08-19T20:03:16.647Z,25.69
2022-08-19T20:05:49.223Z,25.58
2022-08-19T20:08:41.425Z,25.48
2022-08-19T20:11:26.114Z,25.37
2022-08-19T20:14:01.161Z,25.24
2022-08-19T20:16:33.631Z,25.18
2022-08-19T20:19:07.853Z,25.06
2022-08-19T20:21:43.175Z,25.01
2022-08-19T20:24:18.710Z,24.91
2022-08-19T20:26:53.410Z,24.86
2022-08-19T20:29:38.908Z,24.73
2022-08-19T20:32:13.788Z,24.61
2022-08-19T20:34:48.397Z,24.51
2022-08-19T20:37:20.795Z,24.31
2022-08-19T20:39:53.336Z,24.16
2022-08-19T20:42:25.808Z,24.16
2022-08-19T20:44:58.314Z,24.00
2022-08-19T20:47:32.091Z,23.94
2022-08-19T20:50:06.819Z,23.88
2022-08-19T20:52:39.294Z,23.80
2022-08-19T20:55:14.149Z,23.78
2022-08-19T20:57:49.467Z,23.77
2022-08-19T21:00:21.931Z,23.72
2022-08-19T21:02:54.380Z,23.69
2022-08-19T21:05:30.614Z,23.68
2022-08-19T21:08:03.933Z,23.64
2022-08-19T21:10:39.396Z,23.52
2022-08-19T21:13:15.045Z,23.39
2022-08-19T21:15:47.951Z,23.21
2022-08-19T21:18:22.918Z,23.26
2022-08-19T21:20:56.314Z,23.20
2022-08-19T21:23:30.388Z,23.14
2022-08-19T21:26:02.931Z,23.17
2022-08-19T21:28:36.451Z,23.14
2022-08-19T21:31:10.005Z,23.03
2022-08-19T21:33:42.631Z,23.00
2022-08-19T21:36:16.642Z,22.93
2022-08-19T21:38:49.067Z,22.82
2022-08-19T21:41:21.838Z,22.81
2022-08-19T21:43:54.278Z,22.79
2022-08-19T21:46:27.726Z,22.58
2022-08-19T21:49:00.159Z,22.64
2022-08-19T21:51:33.234Z,22.60
2022-08-19T21:54:05.810Z,22.56
2022-08-19T21:56:39.335Z,22.50
2022-08-19T21:59:11.864Z,22.42
2022-08-19T22:01:48.847Z,22.33
2022-08-19T22:04:24.504Z,22.21
2022-08-19T22:06:59.563Z,22.21
2022-08-19T22:09:32.132Z,22.19
2022-08-19T22:12:04.726Z,22.12
2022-08-19T22:14:37.430Z,22.08
2022-08-19T22:17:09.831Z,22.02
2022-08-19T22:19:42.274Z,22.00
2022-08-19T22:22:23.339Z,21.99
2022-08-19T22:25:06.843Z,21.96
2022-08-19T22:27:39.298Z,21.93
2022-08-19T22:30:15.117Z,21.90
2022-08-19T22:32:54.845Z,21.84
2022-08-19T22:35:32.479Z,21.78
2022-08-19T22:38:07.325Z,21.72
2022-08-19T22:40:42.990Z,21.68
2022-08-19T22:43:18.381Z,21.59
2022-08-19T22:45:52.879Z,21.57
2022-08-19T22:48:28.099Z,21.55
2022-08-19T22:51:19.197Z,21.49
2022-08-19T22:53:52.251Z,21.44
2022-08-19T22:56:24.719Z,21.44
2022-08-19T22:58:57.486Z,21.32
2022-08-19T23:01:30.865Z,21.20
2022-08-19T23:04:04.867Z,21.10
2022-08-19T23:06:41.483Z,21.03
2022-08-19T23:09:16.864Z,21.08
2022-08-19T23:11:49.627Z,21.01
2022-08-19T23:14:22.023Z,20.97
2022-08-19T23:16:58.760Z,20.93
2022-08-19T23:19:32.357Z,20.94
2022-08-19T23:22:04.959Z,20.92
2022-08-19T23:24:38.043Z,20.94
2022-08-19T23:27:28.613Z,20.89
2022-08-19T23:30:24.699Z,20.84
2022-08-19T23:33:00.239Z,20.76
2022-08-19T23:35:36.012Z,20.79
2022-08-19T23:38:09.106Z,20.81
2022-08-19T23:40:42.315Z,20.81
2022-08-19T23:43:20.884Z,20.67
2022-08-19T23:45:57.647Z,20.71
2022-08-19T23:48:35.125Z,20.70
2022-08-19T23:51:09.343Z,20.56
2022-08-19T23:53:42.367Z,20.45
2022-08-19T23:56:15.487Z,20.44
2022-08-19T23:58:48.383Z,20.44
